Wylie's Hourly Summary for Friday, April 14, 2017
Hour Temp
(f)
RH
(%)
Solar Rad.
(MJ/m2)
Rainfall
(in)
Wind
(mph)
4/14/2017 12:00 AM 69 64 0 0 4.64
4/14/2017 1:00 AM 68 67 0 0 4.64
4/14/2017 2:00 AM 68 68 0 0 5.47
4/14/2017 3:00 AM 66 68 0 0 4.43
4/14/2017 4:00 AM 65 68 0 0 5.58
4/14/2017 5:00 AM 64 75 0 0 4.48
4/14/2017 6:00 AM 63 76 0 0 3.87
4/14/2017 7:00 AM 63 79 0 0 3.77
4/14/2017 8:00 AM 63 81 0.2 0 4.18
4/14/2017 9:00 AM 64 81 0.37 0 5.42
4/14/2017 10:00 AM 66 75 0.93 0 6.94
4/14/2017 11:00 AM 69 62 2.21 0 7.38
4/14/2017 12:00 PM 73 53 2.71 0 9.45
4/14/2017 1:00 PM 75 48 2.48 0 10.43
4/14/2017 2:00 PM 77 42 2.9 0 11.53
4/14/2017 3:00 PM 77 44 2.12 0 9.46
4/14/2017 4:00 PM 78 41 2.85 0 8.99
4/14/2017 5:00 PM 78 40 2.3 0 9.66
4/14/2017 6:00 PM 78 42 1.55 0 9.56
4/14/2017 7:00 PM 77 43 0.77 0 8.42
4/14/2017 8:00 PM 76 45 0.13 0 8.19
4/14/2017 9:00 PM 73 49 0 0 5.91
4/14/2017 10:00 PM 72 55 0 0 4.83
4/14/2017 11:00 PM 70 60 0 0 4.25
Data Summary 70 59 21.52 0.00 6.73